sensor_id;sensor_type;location;lat;lon;timestamp;pressure;altitude;pressure_sealevel;temperature;humidity
48614;BME280;34408;51.426;5.444;2023-03-20T00:00:50;101951.59;;;12.09;61.08
48614;BME280;34408;51.426;5.444;2023-03-20T00:03:18;101934.81;;;12.00;61.04
48614;BME280;34408;51.426;5.444;2023-03-20T00:05:46;101952.44;;;12.10;60.64
48614;BME280;34408;51.426;5.444;2023-03-20T00:08:14;101954.31;;;12.09;60.72
48614;BME280;34408;51.426;5.444;2023-03-20T00:10:44;101954.50;;;12.08;60.53
48614;BME280;34408;51.426;5.444;2023-03-20T00:13:18;101947.25;;;12.08;60.91
48614;BME280;34408;51.426;5.444;2023-03-20T00:15:48;101945.59;;;12.07;61.00
48614;BME280;34408;51.426;5.444;2023-03-20T00:18:17;101948.50;;;12.05;61.02
48614;BME280;34408;51.426;5.444;2023-03-20T00:20:49;101945.38;;;12.02;60.74
48614;BME280;34408;51.426;5.444;2023-03-20T00:23:17;101955.75;;;12.05;60.85
48614;BME280;34408;51.426;5.444;2023-03-20T00:25:45;101954.09;;;12.04;60.73
48614;BME280;34408;51.426;5.444;2023-03-20T00:28:39;101951.59;;;12.02;60.78
48614;BME280;34408;51.426;5.444;2023-03-20T00:31:17;101947.03;;;12.03;60.81
48614;BME280;34408;51.426;5.444;2023-03-20T00:33:47;101935.63;;;12.01;60.81
48614;BME280;34408;51.426;5.444;2023-03-20T00:36:15;101924.03;;;12.00;60.97
48614;BME280;34408;51.426;5.444;2023-03-20T00:38:42;101913.47;;;11.99;60.77
48614;BME280;34408;51.426;5.444;2023-03-20T00:41:20;101911.78;;;11.98;61.05
48614;BME280;34408;51.426;5.444;2023-03-20T00:43:52;101921.75;;;11.97;61.11
48614;BME280;34408;51.426;5.444;2023-03-20T00:46:21;101913.88;;;11.96;60.90
48614;BME280;34408;51.426;5.444;2023-03-20T00:48:49;101909.50;;;11.95;60.89
48614;BME280;34408;51.426;5.444;2023-03-20T00:51:17;101905.16;;;11.94;60.87
48614;BME280;34408;51.426;5.444;2023-03-20T00:53:45;101907.22;;;11.92;60.88
48614;BME280;34408;51.426;5.444;2023-03-20T00:56:27;101896.44;;;11.92;60.99
48614;BME280;34408;51.426;5.444;2023-03-20T00:58:59;101901.22;;;11.90;61.09
48614;BME280;34408;51.426;5.444;2023-03-20T01:01:27;101911.16;;;11.89;60.74
48614;BME280;34408;51.426;5.444;2023-03-20T01:03:55;101917.78;;;11.87;60.83
48614;BME280;34408;51.426;5.444;2023-03-20T01:06:23;101914.25;;;11.80;60.53
48614;BME280;34408;51.426;5.444;2023-03-20T01:08:51;101938.72;;;11.85;60.58
48614;BME280;34408;51.426;5.444;2023-03-20T01:11:22;101938.91;;;11.83;60.64
48614;BME280;34408;51.426;5.444;2023-03-20T01:13:50;101943.47;;;11.83;60.93
48614;BME280;34408;51.426;5.444;2023-03-20T01:16:22;101959.00;;;11.81;60.72
48614;BME280;34408;51.426;5.444;2023-03-20T01:18:51;101953.81;;;11.79;60.72
48614;BME280;34408;51.426;5.444;2023-03-20T01:21:19;101947.59;;;11.79;60.66
48614;BME280;34408;51.426;5.444;2023-03-20T01:23:47;101931.19;;;11.73;60.79
48614;BME280;34408;51.426;5.444;2023-03-20T01:26:27;101929.13;;;11.76;60.33
48614;BME280;34408;51.426;5.444;2023-03-20T01:28:58;101925.59;;;11.75;60.68
48614;BME280;34408;51.426;5.444;2023-03-20T01:31:27;101934.72;;;11.74;60.76
48614;BME280;34408;51.426;5.444;2023-03-20T01:33:55;101933.06;;;11.73;60.86
48614;BME280;34408;51.426;5.444;2023-03-20T01:36:23;101935.75;;;11.73;60.65
48614;BME280;34408;51.426;5.444;2023-03-20T01:38:53;101944.66;;;11.73;60.71
48614;BME280;34408;51.426;5.444;2023-03-20T01:41:23;101935.94;;;11.71;60.81
48614;BME280;34408;51.426;5.444;2023-03-20T01:43:52;101929.72;;;11.71;60.66
48614;BME280;34408;51.426;5.444;2023-03-20T01:46:23;101936.16;;;11.70;60.98
48614;BME280;34408;51.426;5.444;2023-03-20T01:52:13;101933.66;;;11.68;60.68
48614;BME280;34408;51.426;5.444;2023-03-20T01:54:41;101928.47;;;11.67;60.62
48614;BME280;34408;51.426;5.444;2023-03-20T01:57:11;101924.13;;;11.66;60.76
48614;BME280;34408;51.426;5.444;2023-03-20T01:59:45;101928.03;;;11.63;60.96
48614;BME280;34408;51.426;5.444;2023-03-20T02:02:17;101925.34;;;11.63;60.67
48614;BME280;34408;51.426;5.444;2023-03-20T02:04:52;101918.31;;;11.62;60.92
48614;BME280;34408;51.426;5.444;2023-03-20T02:07:22;101926.59;;;11.61;60.74
48614;BME280;34408;51.426;5.444;2023-03-20T02:09:51;101919.75;;;11.58;60.76
48614;BME280;34408;51.426;5.444;2023-03-20T02:12:19;101923.47;;;11.57;60.66
48614;BME280;34408;51.426;5.444;2023-03-20T02:14:48;101925.75;;;11.54;60.43
48614;BME280;34408;51.426;5.444;2023-03-20T02:17:18;101941.69;;;11.55;60.82
48614;BME280;34408;51.426;5.444;2023-03-20T02:19:57;101957.22;;;11.53;60.89
48614;BME280;34408;51.426;5.444;2023-03-20T02:22:46;101941.25;;;11.52;60.40
48614;BME280;34408;51.426;5.444;2023-03-20T02:25:42;101937.94;;;11.50;60.42
48614;BME280;34408;51.426;5.444;2023-03-20T02:28:48;101948.06;;;11.48;60.68
48614;BME280;34408;51.426;5.444;2023-03-20T02:31:40;101953.47;;;11.48;60.54
48614;BME280;34408;51.426;5.444;2023-03-20T02:34:33;101956.56;;;11.45;60.62
48614;BME280;34408;51.426;5.444;2023-03-20T02:40:21;101951.56;;;11.41;60.51
48614;BME280;34408;51.426;5.444;2023-03-20T02:42:57;101945.56;;;11.39;60.46
48614;BME280;34408;51.426;5.444;2023-03-20T02:45:28;101931.28;;;11.39;60.48
48614;BME280;34408;51.426;5.444;2023-03-20T02:48:07;101919.66;;;11.32;60.57
48614;BME280;34408;51.426;5.444;2023-03-20T02:50:45;101929.59;;;11.38;60.58
48614;BME280;34408;51.426;5.444;2023-03-20T02:53:23;101925.47;;;11.35;60.39
48614;BME280;34408;51.426;5.444;2023-03-20T02:55:59;101928.34;;;11.34;60.51
48614;BME280;34408;51.426;5.444;2023-03-20T02:58:36;101926.69;;;11.33;60.76
48614;BME280;34408;51.426;5.444;2023-03-20T03:01:09;101916.94;;;11.32;60.59
48614;BME280;34408;51.426;5.444;2023-03-20T03:03:43;101926.69;;;11.33;60.55
48614;BME280;34408;51.426;5.444;2023-03-20T03:06:17;101916.94;;;11.32;60.50
48614;BME280;34408;51.426;5.444;2023-03-20T03:08:51;101920.66;;;11.31;60.60
48614;BME280;34408;51.426;5.444;2023-03-20T03:11:22;101906.38;;;11.30;60.60
48614;BME280;34408;51.426;5.444;2023-03-20T03:13:53;101911.97;;;11.29;60.33
48614;BME280;34408;51.426;5.444;2023-03-20T03:16:24;101911.13;;;11.28;60.54
48614;BME280;34408;51.426;5.444;2023-03-20T03:19:00;101907.81;;;11.26;60.72
48614;BME280;34408;51.426;5.444;2023-03-20T03:21:31;101896.84;;;11.28;60.59
48614;BME280;34408;51.426;5.444;2023-03-20T03:23:59;101897.88;;;11.27;60.60
48614;BME280;34408;51.426;5.444;2023-03-20T03:26:31;101881.09;;;11.25;60.58
48614;BME280;34408;51.426;5.444;2023-03-20T03:29:03;101880.47;;;11.23;60.58
48614;BME280;34408;51.426;5.444;2023-03-20T03:31:35;101885.84;;;11.23;60.56
48614;BME280;34408;51.426;5.444;2023-03-20T03:34:04;101887.72;;;11.22;60.68
48614;BME280;34408;51.426;5.444;2023-03-20T03:36:38;101870.13;;;11.20;60.83
48614;BME280;34408;51.426;5.444;2023-03-20T03:39:17;101894.53;;;11.18;60.73
48614;BME280;34408;51.426;5.444;2023-03-20T03:41:52;101884.81;;;11.17;60.58
48614;BME280;34408;51.426;5.444;2023-03-20T03:44:27;101892.25;;;11.15;60.66
48614;BME280;34408;51.426;5.444;2023-03-20T03:47:02;101889.56;;;11.15;60.73
48614;BME280;34408;51.426;5.444;2023-03-20T03:49:35;101875.47;;;11.13;60.64
48614;BME280;34408;51.426;5.444;2023-03-20T03:52:07;101856.19;;;11.03;60.74
48614;BME280;34408;51.426;5.444;2023-03-20T03:54:40;101870.28;;;11.12;60.82
48614;BME280;34408;51.426;5.444;2023-03-20T03:57:12;101872.16;;;11.11;60.71
48614;BME280;34408;51.426;5.444;2023-03-20T03:59:46;101868.63;;;11.11;60.56
48614;BME280;34408;51.426;5.444;2023-03-20T04:02:17;101865.09;;;11.10;60.73
48614;BME280;34408;51.426;5.444;2023-03-20T04:04:49;101869.66;;;11.09;60.51
48614;BME280;34408;51.426;5.444;2023-03-20T04:07:18;101868.19;;;11.07;60.44
48614;BME280;34408;51.426;5.444;2023-03-20T04:09:46;101873.16;;;11.03;60.71
48614;BME280;34408;51.426;5.444;2023-03-20T04:12:31;101874.59;;;11.06;60.44
48614;BME280;34408;51.426;5.444;2023-03-20T04:14:59;101866.75;;;11.04;60.40
48614;BME280;34408;51.426;5.444;2023-03-20T04:17:29;101868.56;;;10.97;60.46
48614;BME280;34408;51.426;5.444;2023-03-20T04:19:57;101870.66;;;11.02;60.54
48614;BME280;34408;51.426;5.444;2023-03-20T04:22:25;101873.56;;;11.00;60.49
48614;BME280;34408;51.426;5.444;2023-03-20T04:24:52;101876.25;;;11.00;60.67
48614;BME280;34408;51.426;5.444;2023-03-20T04:27:22;101869.41;;;10.98;60.57
48614;BME280;34408;51.426;5.444;2023-03-20T04:29:49;101864.84;;;10.98;60.46
48614;BME280;34408;51.426;5.444;2023-03-20T04:32:17;101862.34;;;10.97;60.48
48614;BME280;34408;51.426;5.444;2023-03-20T04:34:45;101862.56;;;10.95;60.51
48614;BME280;34408;51.426;5.444;2023-03-20T04:37:13;101865.44;;;10.94;60.49
48614;BME280;34408;51.426;5.444;2023-03-20T04:39:41;101868.13;;;10.94;60.41
48614;BME280;34408;51.426;5.444;2023-03-20T04:42:10;101868.34;;;10.92;60.40
48614;BME280;34408;51.426;5.444;2023-03-20T04:44:39;101869.16;;;10.93;60.43
48614;BME280;34408;51.426;5.444;2023-03-20T04:47:07;101858.41;;;10.93;60.40
48614;BME280;34408;51.426;5.444;2023-03-20T04:49:34;101861.28;;;10.91;60.58
48614;BME280;34408;51.426;5.444;2023-03-20T04:52:02;101853.44;;;10.90;60.49
48614;BME280;34408;51.426;5.444;2023-03-20T04:54:30;101857.97;;;10.89;60.53
48614;BME280;34408;51.426;5.444;2023-03-20T04:56:58;101849.91;;;10.89;60.43
48614;BME280;34408;51.426;5.444;2023-03-20T04:59:26;101842.88;;;10.88;60.32
48614;BME280;34408;51.426;5.444;2023-03-20T05:01:55;101836.84;;;10.86;60.36
48614;BME280;34408;51.426;5.444;2023-03-20T05:04:23;101840.38;;;10.87;60.40
48614;BME280;34408;51.426;5.444;2023-03-20T05:06:51;101848.44;;;10.87;60.35
48614;BME280;34408;51.426;5.444;2023-03-20T05:09:18;101845.97;;;10.85;60.32
48614;BME280;34408;51.426;5.444;2023-03-20T05:11:46;101845.13;;;10.85;60.40
48614;BME280;34408;51.426;5.444;2023-03-20T05:14:14;101836.59;;;10.74;60.35
48614;BME280;34408;51.426;5.444;2023-03-20T05:16:42;101859.59;;;10.84;60.31
48614;BME280;34408;51.426;5.444;2023-03-20T05:19:11;101852.56;;;10.83;60.46
48614;BME280;34408;51.426;5.444;2023-03-20T05:21:39;101852.75;;;10.81;60.40
48614;BME280;34408;51.426;5.444;2023-03-20T05:24:07;101841.19;;;10.81;60.57
48614;BME280;34408;51.426;5.444;2023-03-20T05:26:35;101843.22;;;10.79;60.49
48614;BME280;34408;51.426;5.444;2023-03-20T05:29:02;101843.44;;;10.77;60.50
48614;BME280;34408;51.426;5.444;2023-03-20T05:31:30;101840.75;;;10.77;60.22
48614;BME280;34408;51.426;5.444;2023-03-20T05:33:58;101831.84;;;10.76;60.63
48614;BME280;34408;51.426;5.444;2023-03-20T05:36:27;101835.75;;;10.74;60.45
48614;BME280;34408;51.426;5.444;2023-03-20T05:38:55;101833.66;;;10.69;60.51
48614;BME280;34408;51.426;5.444;2023-03-20T05:41:23;101845.69;;;10.73;60.46
48614;BME280;34408;51.426;5.444;2023-03-20T05:43:51;101849.41;;;10.72;60.60
48614;BME280;34408;51.426;5.444;2023-03-20T05:46:19;101844.03;;;10.72;60.56
48614;BME280;34408;51.426;5.444;2023-03-20T05:48:48;101840.50;;;10.72;60.52
48614;BME280;34408;51.426;5.444;2023-03-20T05:51:15;101844.22;;;10.71;60.54
48614;BME280;34408;51.426;5.444;2023-03-20T05:53:44;101845.25;;;10.70;60.61
48614;BME280;34408;51.426;5.444;2023-03-20T05:56:12;101856.00;;;10.70;60.66
48614;BME280;34408;51.426;5.444;2023-03-20T05:58:40;101849.81;;;10.69;60.46
48614;BME280;34408;51.426;5.444;2023-03-20T06:01:08;101858.88;;;10.68;60.48
48614;BME280;34408;51.426;5.444;2023-03-20T06:03:36;101855.38;;;10.68;60.68
48614;BME280;34408;51.426;5.444;2023-03-20T06:06:04;101867.16;;;10.67;60.53
48614;BME280;34408;51.426;5.444;2023-03-20T06:08:32;101871.91;;;10.65;60.86
48614;BME280;34408;51.426;5.444;2023-03-20T06:11:03;101874.38;;;10.66;60.64
48614;BME280;34408;51.426;5.444;2023-03-20T06:13:31;101877.28;;;10.65;60.76
48614;BME280;34408;51.426;5.444;2023-03-20T06:15:59;101869.41;;;10.63;60.72
48614;BME280;34408;51.426;5.444;2023-03-20T06:18:27;101879.97;;;10.65;60.66
48614;BME280;34408;51.426;5.444;2023-03-20T06:20:56;101880.16;;;10.63;60.64
48614;BME280;34408;51.426;5.444;2023-03-20T06:23:24;101877.47;;;10.63;60.68
48614;BME280;34408;51.426;5.444;2023-03-20T06:25:52;101885.16;;;10.66;60.63
48614;BME280;34408;51.426;5.444;2023-03-20T06:28:21;101879.97;;;10.65;60.52
48614;BME280;34408;51.426;5.444;2023-03-20T06:30:50;101873.75;;;10.64;60.60
48614;BME280;34408;51.426;5.444;2023-03-20T06:33:18;101872.94;;;10.64;60.56
48614;BME280;34408;51.426;5.444;2023-03-20T06:35:47;101879.75;;;10.66;60.65
48614;BME280;34408;51.426;5.444;2023-03-20T06:38:15;101881.63;;;10.66;60.66
48614;BME280;34408;51.426;5.444;2023-03-20T06:40:43;101883.47;;;10.65;60.53
48614;BME280;34408;51.426;5.444;2023-03-20T06:43:11;101887.19;;;10.64;60.74
48614;BME280;34408;51.426;5.444;2023-03-20T06:45:40;101887.19;;;10.64;60.61
48614;BME280;34408;51.426;5.444;2023-03-20T06:48:08;101892.78;;;10.63;60.53
48614;BME280;34408;51.426;5.444;2023-03-20T06:50:36;101888.41;;;10.62;60.60
48614;BME280;34408;51.426;5.444;2023-03-20T06:53:04;101894.63;;;10.62;60.71
48614;BME280;34408;51.426;5.444;2023-03-20T06:55:32;101909.09;;;10.61;60.61
48614;BME280;34408;51.426;5.444;2023-03-20T06:58:00;101948.59;;;10.61;60.63
48614;BME280;34408;51.426;5.444;2023-03-20T07:00:28;101916.72;;;10.58;60.58
48614;BME280;34408;51.426;5.444;2023-03-20T07:02:58;101927.28;;;10.59;60.63
48614;BME280;34408;51.426;5.444;2023-03-20T07:05:27;101921.06;;;10.59;60.77
48614;BME280;34408;51.426;5.444;2023-03-20T07:07:55;101934.50;;;10.59;60.70
48614;BME280;34408;51.426;5.444;2023-03-20T07:10:23;101930.34;;;10.56;60.83
48614;BME280;34408;51.426;5.444;2023-03-20T07:12:51;101934.91;;;10.56;61.02
48614;BME280;34408;51.426;5.444;2023-03-20T07:15:19;101918.78;;;10.56;60.88
48614;BME280;34408;51.426;5.444;2023-03-20T07:17:46;101930.94;;;10.52;60.94
48614;BME280;34408;51.426;5.444;2023-03-20T07:20:16;101927.41;;;10.51;60.82
48614;BME280;34408;51.426;5.444;2023-03-20T07:22:43;101939.00;;;10.52;60.98
48614;BME280;34408;51.426;5.444;2023-03-20T07:25:12;101938.19;;;10.51;60.97
48614;BME280;34408;51.426;5.444;2023-03-20T07:27:40;101942.53;;;10.52;61.06
48614;BME280;34408;51.426;5.444;2023-03-20T07:30:10;101940.88;;;10.51;60.73
48614;BME280;34408;51.426;5.444;2023-03-20T07:32:38;101941.69;;;10.52;61.01
48614;BME280;34408;51.426;5.444;2023-03-20T07:35:07;101935.88;;;10.48;60.90
48614;BME280;34408;51.426;5.444;2023-03-20T07:37:36;101937.94;;;10.46;61.00
48614;BME280;34408;51.426;5.444;2023-03-20T07:40:05;101943.31;;;10.46;61.12
48614;BME280;34408;51.426;5.444;2023-03-20T07:42:33;101942.28;;;10.47;60.75
48614;BME280;34408;51.426;5.444;2023-03-20T07:45:01;101940.41;;;10.48;60.74
48614;BME280;34408;51.426;5.444;2023-03-20T07:47:29;101942.09;;;10.49;60.94
48614;BME280;34408;51.426;5.444;2023-03-20T07:49:57;101920.53;;;10.42;60.81
48614;BME280;34408;51.426;5.444;2023-03-20T07:52:25;101936.50;;;10.50;60.91
48614;BME280;34408;51.426;5.444;2023-03-20T07:54:54;101940.22;;;10.49;60.98
48614;BME280;34408;51.426;5.444;2023-03-20T07:57:22;101942.09;;;10.49;60.85
48614;BME280;34408;51.426;5.444;2023-03-20T07:59:50;101950.16;;;10.49;60.64
48614;BME280;34408;51.426;5.444;2023-03-20T08:02:18;101947.47;;;10.49;60.86
48614;BME280;34408;51.426;5.444;2023-03-20T08:04:46;101947.25;;;10.50;60.89
48614;BME280;34408;51.426;5.444;2023-03-20T08:07:13;101944.38;;;10.52;60.98
48614;BME280;34408;51.426;5.444;2023-03-20T08:09:41;101944.38;;;10.52;60.84
48614;BME280;34408;51.426;5.444;2023-03-20T08:12:10;101943.53;;;10.51;60.69
48614;BME280;34408;51.426;5.444;2023-03-20T08:14:38;101939.00;;;10.52;60.79
48614;BME280;34408;51.426;5.444;2023-03-20T08:17:06;101943.34;;;10.53;60.69
48614;BME280;34408;51.426;5.444;2023-03-20T08:19:42;101941.69;;;10.52;60.53
48614;BME280;34408;51.426;5.444;2023-03-20T08:22:09;101942.53;;;10.52;60.65
48614;BME280;34408;51.426;5.444;2023-03-20T08:24:37;101939.00;;;10.52;60.56
48614;BME280;34408;51.426;5.444;2023-03-20T08:27:05;101949.75;;;10.52;60.75
48614;BME280;34408;51.426;5.444;2023-03-20T08:29:34;101946.25;;;10.51;60.61
48614;BME280;34408;51.426;5.444;2023-03-20T08:32:02;101951.41;;;10.53;60.75
48614;BME280;34408;51.426;5.444;2023-03-20T08:34:30;101945.03;;;10.54;60.88
48614;BME280;34408;51.426;5.444;2023-03-20T08:36:59;101942.53;;;10.52;60.62
48614;BME280;34408;51.426;5.444;2023-03-20T08:39:26;101947.06;;;10.52;60.74
48614;BME280;34408;51.426;5.444;2023-03-20T08:41:54;101943.34;;;10.53;60.67
48614;BME280;34408;51.426;5.444;2023-03-20T08:44:25;101937.34;;;10.51;60.69
48614;BME280;34408;51.426;5.444;2023-03-20T08:46:54;101940.88;;;10.51;60.89
48614;BME280;34408;51.426;5.444;2023-03-20T08:49:22;101943.59;;;10.58;60.55
48614;BME280;34408;51.426;5.444;2023-03-20T08:51:50;101948.88;;;10.72;60.08
48614;BME280;34408;51.426;5.444;2023-03-20T08:54:18;101935.34;;;10.87;59.63
48614;BME280;34408;51.426;5.444;2023-03-20T08:56:46;101938.78;;;11.09;59.23
48614;BME280;34408;51.426;5.444;2023-03-20T08:59:14;101933.06;;;11.25;58.66
48614;BME280;34408;51.426;5.444;2023-03-20T09:01:41;101939.78;;;11.43;58.02
48614;BME280;34408;51.426;5.444;2023-03-20T09:04:17;101934.25;;;11.64;57.61
48614;BME280;34408;51.426;5.444;2023-03-20T09:06:45;101932.84;;;11.74;57.15
48614;BME280;34408;51.426;5.444;2023-03-20T09:09:13;101937.41;;;11.74;57.13
48614;BME280;34408;51.426;5.444;2023-03-20T09:11:44;101933.03;;;11.66;57.58
48614;BME280;34408;51.426;5.444;2023-03-20T09:14:11;101928.22;;;11.55;57.80
48614;BME280;34408;51.426;5.444;2023-03-20T09:16:40;101950.34;;;11.44;58.13
48614;BME280;34408;51.426;5.444;2023-03-20T09:19:08;101949.88;;;11.34;58.26
48614;BME280;34408;51.426;5.444;2023-03-20T09:21:37;101955.81;;;11.23;58.82
48614;BME280;34408;51.426;5.444;2023-03-20T09:24:06;101954.13;;;11.15;59.05
48614;BME280;34408;51.426;5.444;2023-03-20T09:26:34;101954.09;;;11.08;59.42
48614;BME280;34408;51.426;5.444;2023-03-20T09:29:02;101961.09;;;11.03;59.61
48614;BME280;34408;51.426;5.444;2023-03-20T09:31:30;101961.47;;;11.00;59.97
48614;BME280;34408;51.426;5.444;2023-03-20T09:33:58;101971.16;;;10.94;60.18
48614;BME280;34408;51.426;5.444;2023-03-20T09:36:26;101965.16;;;10.92;60.42
48614;BME280;34408;51.426;5.444;2023-03-20T09:38:55;101975.47;;;10.89;60.67
48614;BME280;34408;51.426;5.444;2023-03-20T09:41:24;101975.03;;;10.85;60.75
48614;BME280;34408;51.426;5.444;2023-03-20T09:44:03;101953.88;;;10.75;60.81
48614;BME280;34408;51.426;5.444;2023-03-20T09:46:56;101974.84;;;10.87;61.03
48614;BME280;34408;51.426;5.444;2023-03-20T09:49:51;101968.13;;;11.04;60.53
48614;BME280;34408;51.426;5.444;2023-03-20T09:52:25;101969.28;;;11.23;60.10
48614;BME280;34408;51.426;5.444;2023-03-20T09:54:58;101956.72;;;11.36;59.35
48614;BME280;34408;51.426;5.444;2023-03-20T09:57:33;101963.41;;;11.47;59.41
48614;BME280;34408;51.426;5.444;2023-03-20T10:00:05;101960.72;;;11.47;59.33
48614;BME280;34408;51.426;5.444;2023-03-20T10:02:40;101963.38;;;11.40;59.08
48614;BME280;34408;51.426;5.444;2023-03-20T10:05:18;101960.66;;;11.34;59.80
48614;BME280;34408;51.426;5.444;2023-03-20T10:07:47;101959.59;;;11.28;59.93
48614;BME280;34408;51.426;5.444;2023-03-20T10:10:16;101962.25;;;11.22;60.21
48614;BME280;34408;51.426;5.444;2023-03-20T10:12:52;101958.47;;;11.16;60.59
48614;BME280;34408;51.426;5.444;2023-03-20T10:15:35;101961.13;;;11.09;60.84
48614;BME280;34408;51.426;5.444;2023-03-20T10:18:12;101953.25;;;11.08;60.96
48614;BME280;34408;51.426;5.444;2023-03-20T10:20:47;101948.28;;;11.05;61.12
48614;BME280;34408;51.426;5.444;2023-03-20T10:23:26;101941.44;;;11.02;61.32
48614;BME280;34408;51.426;5.444;2023-03-20T10:26:02;101937.66;;;10.97;61.49
48614;BME280;34408;51.426;5.444;2023-03-20T10:28:36;101940.56;;;10.95;61.64
48614;BME280;34408;51.426;5.444;2023-03-20T10:31:20;101939.72;;;10.95;61.74
48614;BME280;34408;51.426;5.444;2023-03-20T10:33:56;101936.22;;;10.94;61.81
48614;BME280;34408;51.426;5.444;2023-03-20T10:36:37;101935.38;;;10.94;61.97
48614;BME280;34408;51.426;5.444;2023-03-20T10:39:13;101925.88;;;10.98;62.05
48614;BME280;34408;51.426;5.444;2023-03-20T10:41:51;101929.47;;;11.12;61.44
48614;BME280;34408;51.426;5.444;2023-03-20T10:44:26;101920.66;;;11.31;61.13
48614;BME280;34408;51.426;5.444;2023-03-20T10:46:58;101922.81;;;11.49;60.54
48614;BME280;34408;51.426;5.444;2023-03-20T10:49:31;101921.22;;;11.67;60.25
48614;BME280;34408;51.426;5.444;2023-03-20T10:52:02;101922.78;;;12.03;59.16
48614;BME280;34408;51.426;5.444;2023-03-20T10:54:34;101906.41;;;12.18;58.72
48614;BME280;34408;51.426;5.444;2023-03-20T10:57:05;101919.25;;;12.42;57.75
48614;BME280;34408;51.426;5.444;2023-03-20T10:59:39;101919.03;;;12.50;57.48
48614;BME280;34408;51.426;5.444;2023-03-20T11:02:09;101923.81;;;12.61;57.33
48614;BME280;34408;51.426;5.444;2023-03-20T11:04:38;101916.13;;;12.65;57.13
48614;BME280;34408;51.426;5.444;2023-03-20T11:07:12;101921.72;;;12.77;57.00
48614;BME280;34408;51.426;5.444;2023-03-20T11:09:44;101920.91;;;12.69;57.00
48614;BME280;34408;51.426;5.444;2023-03-20T11:12:16;101913.00;;;12.68;57.96
48614;BME280;34408;51.426;5.444;2023-03-20T11:14:46;101914.47;;;12.51;57.69
48614;BME280;34408;51.426;5.444;2023-03-20T11:17:15;101915.94;;;12.33;58.35
48614;BME280;34408;51.426;5.444;2023-03-20T11:19:43;101910.53;;;12.20;59.09
48614;BME280;34408;51.426;5.444;2023-03-20T11:22:22;101900.63;;;12.08;59.59
48614;BME280;34408;51.426;5.444;2023-03-20T11:24:53;101896.88;;;12.09;60.78
48614;BME280;34408;51.426;5.444;2023-03-20T11:27:26;101905.78;;;12.22;60.07
48614;BME280;34408;51.426;5.444;2023-03-20T11:29:55;101890.22;;;12.44;59.06
48614;BME280;34408;51.426;5.444;2023-03-20T11:32:27;101888.56;;;12.56;58.69
48614;BME280;34408;51.426;5.444;2023-03-20T11:34:56;101876.28;;;12.67;58.27
48614;BME280;34408;51.426;5.444;2023-03-20T11:37:42;101871.91;;;12.79;57.80
48614;BME280;34408;51.426;5.444;2023-03-20T11:40:15;101869.63;;;12.76;58.03
48614;BME280;34408;51.426;5.444;2023-03-20T11:42:52;101857.03;;;12.50;58.66
48614;BME280;34408;51.426;5.444;2023-03-20T11:45:21;101874.88;;;12.38;59.35
48614;BME280;34408;51.426;5.444;2023-03-20T11:47:50;101864.53;;;12.22;59.89
48614;BME280;34408;51.426;5.444;2023-03-20T11:50:30;101867.66;;;12.12;60.54
48614;BME280;34408;51.426;5.444;2023-03-20T11:53:00;101865.16;;;12.04;60.79
48614;BME280;34408;51.426;5.444;2023-03-20T11:55:30;101861.03;;;12.08;60.74
48614;BME280;34408;51.426;5.444;2023-03-20T11:58:02;101859.56;;;11.99;61.07
48614;BME280;34408;51.426;5.444;2023-03-20T12:00:36;101849.41;;;11.88;61.36
48614;BME280;34408;51.426;5.444;2023-03-20T12:03:44;101864.13;;;11.85;61.50
48614;BME280;34408;51.426;5.444;2023-03-20T12:06:15;101867.00;;;11.77;61.63
48614;BME280;34408;51.426;5.444;2023-03-20T12:08:48;101863.44;;;11.70;62.11
48614;BME280;34408;51.426;5.444;2023-03-20T12:14:22;101868.00;;;11.69;62.37
48614;BME280;34408;51.426;5.444;2023-03-20T12:16:58;101865.72;;;11.73;62.54
48614;BME280;34408;51.426;5.444;2023-03-20T12:19:29;101867.38;;;11.67;62.08
48614;BME280;34408;51.426;5.444;2023-03-20T12:22:01;101865.50;;;11.61;62.43
48614;BME280;34408;51.426;5.444;2023-03-20T12:24:37;101861.94;;;11.54;63.04
48614;BME280;34408;51.426;5.444;2023-03-20T12:27:16;101855.13;;;11.52;63.07
48614;BME280;34408;51.426;5.444;2023-03-20T12:29:51;101860.91;;;11.49;63.05
48614;BME280;34408;51.426;5.444;2023-03-20T12:32:26;101857.38;;;11.48;63.43
48614;BME280;34408;51.426;5.444;2023-03-20T12:34:57;101852.81;;;11.49;63.10
48614;BME280;34408;51.426;5.444;2023-03-20T12:37:29;101844.13;;;11.47;63.15
48614;BME280;34408;51.426;5.444;2023-03-20T12:39:59;101842.47;;;11.46;63.39
48614;BME280;34408;51.426;5.444;2023-03-20T12:42:38;101844.13;;;11.47;63.72
48614;BME280;34408;51.426;5.444;2023-03-20T12:45:13;101834.00;;;11.55;63.44
48614;BME280;34408;51.426;5.444;2023-03-20T12:47:58;101825.56;;;11.78;62.55
48614;BME280;34408;51.426;5.444;2023-03-20T12:50:33;101823.50;;;12.00;61.50
48614;BME280;34408;51.426;5.444;2023-03-20T12:53:23;101826.38;;;12.18;61.28
48614;BME280;34408;51.426;5.444;2023-03-20T12:56:05;101820.34;;;12.36;60.32
48614;BME280;34408;51.426;5.444;2023-03-20T12:58:41;101818.88;;;12.53;60.18
48614;BME280;34408;51.426;5.444;2023-03-20T13:01:16;101814.66;;;12.77;59.18
48614;BME280;34408;51.426;5.444;2023-03-20T13:04:10;101805.88;;;12.95;58.67
48614;BME280;34408;51.426;5.444;2023-03-20T13:06:49;101802.09;;;13.02;59.24
48614;BME280;34408;51.426;5.444;2023-03-20T13:09:24;101808.91;;;13.18;57.73
48614;BME280;34408;51.426;5.444;2023-03-20T13:12:03;101806.81;;;13.14;58.14
48614;BME280;34408;51.426;5.444;2023-03-20T13:14:37;101798.56;;;13.02;58.14
48614;BME280;34408;51.426;5.444;2023-03-20T13:17:15;101805.50;;;12.78;59.30
48614;BME280;34408;51.426;5.444;2023-03-20T13:19:50;101805.78;;;12.57;59.43
48614;BME280;34408;51.426;5.444;2023-03-20T13:22:26;101805.81;;;12.50;60.16